createdAt,value
2023-03-22T00:01:25.234Z,2.43
2023-03-22T00:03:52.963Z,2.20
2023-03-22T00:06:20.736Z,2.30
2023-03-22T00:08:51.745Z,2.30
2023-03-22T00:11:21.926Z,2.40
2023-03-22T00:13:49.077Z,2.20
2023-03-22T00:16:17.637Z,2.50
2023-03-22T00:18:45.100Z,2.33
2023-03-22T00:21:15.751Z,2.23
2023-03-22T00:23:44.162Z,2.17
2023-03-22T00:26:13.641Z,2.50
2023-03-22T00:28:41.707Z,2.83
2023-03-22T00:31:10.520Z,2.90
2023-03-22T00:33:38.299Z,2.90
2023-03-22T00:36:10.955Z,3.13
2023-03-22T00:38:43.702Z,3.20
2023-03-22T00:41:21.475Z,3.80
2023-03-22T00:43:49.878Z,3.70
2023-03-22T00:46:20.385Z,3.47
2023-03-22T00:48:48.457Z,3.97
2023-03-22T00:51:16.725Z,3.63
2023-03-22T00:53:44.507Z,4.37
2023-03-22T00:56:16.191Z,3.50
2023-03-22T00:59:00.726Z,3.90
2023-03-22T01:01:29.036Z,4.10
2023-03-22T01:03:56.504Z,3.70
2023-03-22T01:06:23.536Z,3.60
2023-03-22T01:08:51.217Z,4.20
2023-03-22T01:11:18.694Z,4.47
2023-03-22T01:13:49.659Z,3.93
2023-03-22T01:16:17.619Z,4.67
2023-03-22T01:18:45.290Z,4.20
2023-03-22T01:21:12.647Z,4.60
2023-03-22T01:23:40.538Z,4.97
2023-03-22T01:26:07.714Z,4.97
2023-03-22T01:28:34.852Z,5.03
2023-03-22T01:31:04.071Z,5.30
2023-03-22T01:33:31.706Z,5.93
2023-03-22T01:35:59.540Z,5.60
2023-03-22T01:38:28.072Z,6.40
2023-03-22T01:41:00.415Z,6.20
2023-03-22T01:43:31.002Z,6.00
2023-03-22T01:45:59.520Z,6.27
2023-03-22T01:48:42.047Z,5.97
2023-03-22T01:51:25.400Z,6.00
2023-03-22T01:54:47.009Z,6.30
2023-03-22T01:57:26.837Z,6.00
2023-03-22T01:59:54.622Z,6.17
2023-03-22T02:05:43.532Z,5.93
2023-03-22T02:08:14.844Z,5.97
2023-03-22T02:10:55.300Z,5.67
2023-03-22T02:13:52.679Z,6.27
2023-03-22T02:17:10.763Z,5.53
2023-03-22T02:20:38.630Z,5.87
2023-03-22T02:24:01.841Z,5.70
2023-03-22T02:26:59.999Z,4.73
2023-03-22T02:29:45.293Z,6.10
2023-03-22T02:32:33.002Z,5.57
2023-03-22T02:35:38.813Z,5.13
2023-03-22T02:38:59.545Z,5.07
2023-03-22T02:42:11.237Z,4.70
2023-03-22T02:44:43.365Z,4.67
2023-03-22T02:47:39.688Z,4.50
2023-03-22T02:50:09.971Z,4.53
2023-03-22T02:52:46.173Z,4.40
2023-03-22T02:55:29.113Z,4.27
2023-03-22T02:58:35.737Z,4.73
2023-03-22T03:01:11.251Z,4.03
2023-03-22T03:03:39.801Z,3.73
2023-03-22T03:06:14.947Z,4.13
2023-03-22T03:08:46.818Z,4.77
2023-03-22T03:11:14.281Z,3.83
2023-03-22T03:13:41.961Z,4.47
2023-03-22T03:16:17.552Z,3.80
2023-03-22T03:19:00.527Z,3.47
2023-03-22T03:21:56.257Z,4.03
2023-03-22T03:24:32.263Z,3.63
2023-03-22T03:27:35.258Z,3.70
2023-03-22T03:30:21.351Z,3.37
2023-03-22T03:32:59.318Z,3.40
2023-03-22T03:35:39.312Z,3.63
2023-03-22T03:38:18.684Z,3.50
2023-03-22T03:40:57.306Z,3.30
2023-03-22T03:43:25.800Z,3.10
2023-03-22T03:45:55.398Z,3.63
2023-03-22T03:48:29.968Z,3.40
2023-03-22T03:50:59.117Z,3.40
2023-03-22T03:53:26.501Z,3.27
2023-03-22T03:55:53.702Z,3.07
2023-03-22T03:58:20.863Z,3.13
2023-03-22T04:00:49.510Z,3.30
2023-03-22T04:03:39.102Z,3.50
2023-03-22T04:06:12.199Z,3.10
2023-03-22T04:08:45.479Z,3.50
2023-03-22T04:11:15.013Z,3.47
2023-03-22T04:13:43.427Z,3.43
2023-03-22T04:16:15.596Z,3.07
2023-03-22T04:18:42.866Z,3.60
2023-03-22T04:21:12.136Z,2.90
2023-03-22T04:23:48.296Z,3.40
2023-03-22T04:26:16.542Z,3.20
2023-03-22T04:29:05.564Z,3.20
2023-03-22T04:31:36.836Z,2.90
2023-03-22T04:34:14.554Z,2.80
2023-03-22T04:36:50.680Z,2.67
2023-03-22T04:39:30.385Z,2.77
2023-03-22T04:42:19.377Z,2.93
2023-03-22T04:44:47.542Z,2.77
2023-03-22T04:47:14.646Z,2.60
2023-03-22T04:49:42.425Z,2.90
2023-03-22T04:52:11.390Z,2.90
2023-03-22T04:54:40.161Z,2.83
2023-03-22T04:57:07.340Z,2.80
2023-03-22T04:59:40.415Z,2.97
2023-03-22T05:02:07.538Z,2.67
2023-03-22T05:04:41.072Z,2.90
2023-03-22T05:07:20.463Z,2.70
2023-03-22T05:09:52.780Z,2.50
2023-03-22T05:12:19.828Z,3.27
2023-03-22T05:14:53.312Z,2.97
2023-03-22T05:17:24.474Z,2.77
2023-03-22T05:19:54.527Z,2.60
2023-03-22T05:22:22.455Z,2.30
2023-03-22T05:24:51.257Z,2.40
2023-03-22T05:27:31.199Z,3.50
2023-03-22T05:30:17.623Z,2.37
2023-03-22T05:33:03.237Z,3.10
2023-03-22T05:35:39.738Z,2.60
2023-03-22T05:38:10.669Z,2.70
2023-03-22T05:40:42.054Z,2.17
2023-03-22T05:43:09.237Z,2.37
2023-03-22T05:45:38.535Z,2.27
2023-03-22T05:48:25.410Z,2.33
2023-03-22T05:50:52.766Z,2.50
2023-03-22T05:53:19.769Z,2.70
2023-03-22T05:56:00.888Z,2.47
2023-03-22T05:58:33.490Z,2.33
2023-03-22T06:01:12.620Z,2.60
2023-03-22T06:03:45.561Z,2.30
2023-03-22T06:06:31.499Z,2.93
2023-03-22T06:09:16.410Z,2.20
2023-03-22T06:11:46.782Z,2.30
2023-03-22T06:14:15.941Z,2.43
2023-03-22T06:16:53.350Z,2.57
2023-03-22T06:19:20.466Z,2.57
2023-03-22T06:21:47.883Z,2.60
2023-03-22T06:24:16.529Z,2.23
2023-03-22T06:26:43.516Z,2.30
2023-03-22T06:29:11.029Z,2.30
2023-03-22T06:31:38.230Z,2.20
2023-03-22T06:34:07.334Z,2.23
2023-03-22T06:36:42.507Z,2.33
2023-03-22T06:39:32.573Z,2.60
2023-03-22T06:41:59.569Z,2.50
2023-03-22T06:44:26.871Z,2.33
2023-03-22T06:47:17.822Z,2.63
2023-03-22T06:49:58.118Z,2.53
2023-03-22T06:52:37.096Z,2.30
2023-03-22T06:55:06.902Z,2.43
2023-03-22T06:57:34.655Z,2.30
2023-03-22T07:00:02.161Z,2.83
2023-03-22T07:02:29.348Z,2.70
2023-03-22T07:05:26.649Z,2.93
2023-03-22T07:07:53.718Z,3.03
2023-03-22T07:10:20.928Z,3.83
2023-03-22T07:12:48.144Z,3.43
2023-03-22T07:15:17.603Z,3.03
2023-03-22T07:18:04.489Z,3.20
2023-03-22T07:20:36.889Z,3.53
2023-03-22T07:23:05.349Z,3.43
2023-03-22T07:25:37.904Z,3.23
2023-03-22T07:28:27.957Z,3.20
2023-03-22T07:31:15.717Z,3.00
2023-03-22T07:34:12.137Z,2.90
2023-03-22T07:36:56.787Z,2.87
2023-03-22T07:39:27.242Z,2.83
2023-03-22T07:41:54.852Z,2.90
2023-03-22T07:44:26.771Z,2.63
2023-03-22T07:47:30.601Z,2.63
2023-03-22T07:50:20.893Z,2.77
2023-03-22T07:52:53.769Z,2.90
2023-03-22T07:55:21.035Z,2.93
2023-03-22T07:57:48.079Z,2.33
2023-03-22T08:00:16.528Z,2.40
2023-03-22T08:02:47.308Z,2.10
2023-03-22T08:05:30.426Z,2.17
2023-03-22T08:08:01.397Z,2.63
2023-03-22T08:10:28.480Z,2.33
2023-03-22T08:12:55.790Z,2.37
2023-03-22T08:15:26.057Z,2.40
2023-03-22T08:17:57.836Z,2.10
2023-03-22T08:20:32.060Z,2.37
2023-03-22T08:23:03.838Z,2.10
2023-03-22T08:25:51.840Z,1.83
2023-03-22T08:28:19.827Z,2.37
2023-03-22T08:30:48.803Z,2.20
2023-03-22T08:33:16.412Z,2.00
2023-03-22T08:35:46.363Z,1.90
2023-03-22T08:38:13.562Z,2.33
2023-03-22T08:40:48.750Z,1.90
2023-03-22T08:43:20.257Z,2.10
2023-03-22T08:45:48.950Z,2.37
2023-03-22T08:48:19.552Z,1.80
2023-03-22T08:51:02.302Z,1.90
2023-03-22T08:53:50.300Z,1.73
2023-03-22T08:56:38.450Z,1.70
2023-03-22T08:59:24.265Z,1.80
2023-03-22T09:02:14.889Z,1.77
2023-03-22T09:04:42.780Z,1.80
2023-03-22T09:07:10.719Z,1.80
2023-03-22T09:09:38.543Z,1.90
2023-03-22T09:12:06.083Z,2.03
2023-03-22T09:14:36.250Z,1.87
2023-03-22T09:17:05.552Z,1.80
2023-03-22T09:19:32.616Z,1.80
2023-03-22T09:21:59.840Z,1.75
2023-03-22T09:24:41.450Z,1.67
2023-03-22T09:27:09.042Z,1.67
2023-03-22T09:29:36.380Z,1.77
2023-03-22T09:32:08.268Z,1.88
2023-03-22T09:34:37.523Z,1.50
2023-03-22T09:37:04.881Z,1.55
2023-03-22T09:39:42.033Z,1.52
2023-03-22T09:42:38.681Z,1.85
2023-03-22T09:45:18.700Z,1.93
2023-03-22T09:47:54.319Z,1.58
2023-03-22T09:50:30.017Z,1.50
2023-03-22T09:52:57.918Z,1.57
2023-03-22T09:55:47.613Z,1.83
2023-03-22T09:58:29.283Z,1.60
2023-03-22T10:01:02.954Z,1.50
2023-03-22T10:03:32.811Z,1.93
2023-03-22T10:06:17.764Z,1.70
2023-03-22T10:09:32.689Z,1.63
2023-03-22T10:12:25.675Z,1.30
2023-03-22T10:15:18.888Z,1.30
2023-03-22T10:17:53.408Z,1.47
2023-03-22T10:20:38.139Z,1.40
2023-03-22T10:23:14.238Z,1.40
2023-03-22T10:25:43.735Z,1.80
2023-03-22T10:28:28.872Z,2.10
2023-03-22T10:30:58.471Z,1.40
2023-03-22T10:33:50.568Z,1.53
2023-03-22T10:36:24.312Z,1.63
2023-03-22T10:39:04.125Z,1.67
2023-03-22T10:41:34.959Z,1.70
2023-03-22T10:44:06.112Z,1.60
2023-03-22T10:46:39.267Z,1.53
2023-03-22T10:49:11.300Z,1.63
2023-03-22T10:51:49.235Z,1.93
2023-03-22T10:54:21.225Z,1.80
2023-03-22T10:56:48.216Z,1.90
2023-03-22T10:59:52.068Z,1.67
2023-03-22T11:02:28.268Z,1.93
2023-03-22T11:05:03.035Z,1.70
2023-03-22T11:07:44.159Z,2.00
2023-03-22T11:10:24.793Z,1.70
2023-03-22T11:12:55.101Z,1.77
2023-03-22T11:15:27.677Z,1.80
2023-03-22T11:18:05.774Z,1.80
2023-03-22T11:20:35.514Z,1.43
2023-03-22T11:23:06.867Z,1.73
2023-03-22T11:25:44.655Z,1.70
2023-03-22T11:28:22.427Z,1.60
2023-03-22T11:31:13.821Z,1.70
2023-03-22T11:34:02.123Z,1.47
2023-03-22T11:36:29.807Z,1.57
2023-03-22T11:39:00.747Z,1.37
2023-03-22T11:41:34.872Z,1.50
2023-03-22T11:44:06.911Z,1.47
2023-03-22T11:46:36.660Z,1.47
2023-03-22T11:49:14.846Z,1.67
2023-03-22T11:51:43.838Z,1.50
2023-03-22T11:54:23.285Z,1.80
2023-03-22T11:56:50.618Z,1.50
2023-03-22T11:59:27.309Z,1.47
2023-03-22T12:02:20.490Z,1.33
2023-03-22T12:04:51.769Z,1.57
2023-03-22T12:07:24.703Z,1.40
2023-03-22T12:10:14.421Z,1.47
2023-03-22T12:12:59.687Z,1.37
2023-03-22T12:15:34.611Z,1.60
2023-03-22T12:18:39.552Z,1.50
2023-03-22T12:21:09.229Z,1.40
2023-03-22T12:23:36.521Z,1.37
2023-03-22T12:26:15.720Z,1.57
2023-03-22T12:28:56.906Z,1.30
2023-03-22T12:31:44.843Z,1.60
2023-03-22T12:34:23.086Z,1.50
2023-03-22T12:36:55.569Z,1.27
2023-03-22T12:39:35.501Z,1.20
2023-03-22T12:42:49.783Z,1.60
2023-03-22T12:45:26.651Z,1.20
2023-03-22T12:48:14.166Z,1.20
2023-03-22T12:51:00.383Z,1.27
2023-03-22T12:53:36.161Z,1.20
2023-03-22T12:56:03.774Z,1.40
2023-03-22T12:58:31.041Z,1.20
2023-03-22T13:01:38.594Z,1.20
2023-03-22T13:04:43.453Z,1.47
2023-03-22T13:07:40.325Z,1.27
2023-03-22T13:10:38.836Z,1.00
2023-03-22T13:13:33.734Z,1.13
2023-03-22T13:16:09.801Z,1.30
2023-03-22T13:18:37.735Z,1.57
2023-03-22T13:21:23.610Z,1.20
2023-03-22T13:24:15.441Z,1.20
2023-03-22T13:26:59.220Z,1.23
2023-03-22T13:29:36.530Z,1.77
2023-03-22T13:32:29.892Z,1.30
2023-03-22T13:34:57.435Z,1.30
2023-03-22T13:37:36.965Z,1.30
2023-03-22T13:40:22.173Z,1.20
2023-03-22T13:42:51.508Z,1.73
2023-03-22T13:45:34.561Z,1.50
2023-03-22T13:48:34.263Z,1.53
2023-03-22T13:51:25.518Z,1.30
2023-03-22T13:54:18.099Z,1.17
2023-03-22T13:57:00.974Z,1.60
2023-03-22T13:59:28.014Z,1.50
2023-03-22T14:02:22.374Z,1.37
2023-03-22T14:05:04.159Z,1.50
2023-03-22T14:07:44.297Z,1.50
2023-03-22T14:10:43.876Z,1.40
2023-03-22T14:13:28.019Z,1.80
2023-03-22T14:16:03.822Z,1.30
2023-03-22T14:18:36.407Z,1.80
2023-03-22T14:21:14.191Z,1.90
